sensor_id;sensor_type;location;lat;lon;timestamp;temperature;humidity
15916;DHT22;8057;47.830;-3.870;2023-11-19T00:02:26;15.00;99.90
15916;DHT22;8057;47.830;-3.870;2023-11-19T00:06:36;15.00;99.90
15916;DHT22;8057;47.830;-3.870;2023-11-19T00:10:45;15.00;99.90
15916;DHT22;8057;47.830;-3.870;2023-11-19T00:14:55;14.90;99.90
15916;DHT22;8057;47.830;-3.870;2023-11-19T00:19:07;14.90;99.90
15916;DHT22;8057;47.830;-3.870;2023-11-19T00:23:17;14.90;99.90
15916;DHT22;8057;47.830;-3.870;2023-11-19T00:27:26;14.80;99.90
15916;DHT22;8057;47.830;-3.870;2023-11-19T00:31:37;14.80;99.90
15916;DHT22;8057;47.830;-3.870;2023-11-19T00:35:48;14.90;99.90
15916;DHT22;8057;47.830;-3.870;2023-11-19T00:39:58;14.80;99.90
15916;DHT22;8057;47.830;-3.870;2023-11-19T00:44:08;14.90;99.90
15916;DHT22;8057;47.830;-3.870;2023-11-19T00:48:17;14.80;99.90
15916;DHT22;8057;47.830;-3.870;2023-11-19T00:52:28;14.80;99.90
15916;DHT22;8057;47.830;-3.870;2023-11-19T00:56:38;14.80;99.90
15916;DHT22;8057;47.830;-3.870;2023-11-19T01:00:53;14.80;99.90
15916;DHT22;8057;47.830;-3.870;2023-11-19T01:05:03;14.80;99.90
15916;DHT22;8057;47.830;-3.870;2023-11-19T01:09:14;14.90;99.90
15916;DHT22;8057;47.830;-3.870;2023-11-19T01:13:23;14.80;99.90
15916;DHT22;8057;47.830;-3.870;2023-11-19T01:17:33;14.70;99.90
15916;DHT22;8057;47.830;-3.870;2023-11-19T01:21:43;14.70;99.90
15916;DHT22;8057;47.830;-3.870;2023-11-19T01:25:54;14.80;99.90
15916;DHT22;8057;47.830;-3.870;2023-11-19T01:30:06;14.80;99.90
15916;DHT22;8057;47.830;-3.870;2023-11-19T01:34:17;14.90;99.90
15916;DHT22;8057;47.830;-3.870;2023-11-19T01:38:26;14.80;99.90
15916;DHT22;8057;47.830;-3.870;2023-11-19T01:42:38;14.80;99.90
15916;DHT22;8057;47.830;-3.870;2023-11-19T01:46:48;14.90;99.90
15916;DHT22;8057;47.830;-3.870;2023-11-19T01:50:58;14.90;99.90
15916;DHT22;8057;47.830;-3.870;2023-11-19T01:55:11;14.90;99.90
15916;DHT22;8057;47.830;-3.870;2023-11-19T01:59:24;14.80;99.90
15916;DHT22;8057;47.830;-3.870;2023-11-19T02:03:34;14.70;99.90
15916;DHT22;8057;47.830;-3.870;2023-11-19T02:07:44;14.70;99.90
15916;DHT22;8057;47.830;-3.870;2023-11-19T02:11:54;14.70;99.90
15916;DHT22;8057;47.830;-3.870;2023-11-19T02:16:06;14.70;99.90
15916;DHT22;8057;47.830;-3.870;2023-11-19T02:20:17;14.70;99.90
15916;DHT22;8057;47.830;-3.870;2023-11-19T02:24:29;14.70;99.90
15916;DHT22;8057;47.830;-3.870;2023-11-19T02:28:43;14.70;99.90
15916;DHT22;8057;47.830;-3.870;2023-11-19T02:32:53;14.70;99.90
15916;DHT22;8057;47.830;-3.870;2023-11-19T02:37:05;14.70;99.90
15916;DHT22;8057;47.830;-3.870;2023-11-19T02:41:14;14.70;99.90
15916;DHT22;8057;47.830;-3.870;2023-11-19T02:45:25;14.70;99.90
15916;DHT22;8057;47.830;-3.870;2023-11-19T02:49:35;14.60;99.90
15916;DHT22;8057;47.830;-3.870;2023-11-19T02:53:45;14.60;99.90
15916;DHT22;8057;47.830;-3.870;2023-11-19T02:57:56;14.60;99.90
15916;DHT22;8057;47.830;-3.870;2023-11-19T03:02:08;14.60;99.90
15916;DHT22;8057;47.830;-3.870;2023-11-19T03:06:19;14.60;99.90
15916;DHT22;8057;47.830;-3.870;2023-11-19T03:10:29;14.50;99.90
15916;DHT22;8057;47.830;-3.870;2023-11-19T03:14:38;14.50;99.90
15916;DHT22;8057;47.830;-3.870;2023-11-19T03:18:49;14.60;99.90
15916;DHT22;8057;47.830;-3.870;2023-11-19T03:22:58;14.60;99.90
15916;DHT22;8057;47.830;-3.870;2023-11-19T03:27:10;14.60;99.90
15916;DHT22;8057;47.830;-3.870;2023-11-19T03:31:21;14.60;99.90
15916;DHT22;8057;47.830;-3.870;2023-11-19T03:35:32;14.60;99.90
15916;DHT22;8057;47.830;-3.870;2023-11-19T03:39:42;14.60;99.90
15916;DHT22;8057;47.830;-3.870;2023-11-19T03:43:51;14.60;99.90
15916;DHT22;8057;47.830;-3.870;2023-11-19T03:48:00;14.60;99.90
15916;DHT22;8057;47.830;-3.870;2023-11-19T03:52:12;14.60;99.90
15916;DHT22;8057;47.830;-3.870;2023-11-19T03:56:27;14.60;99.90
15916;DHT22;8057;47.830;-3.870;2023-11-19T04:00:37;14.50;99.90
15916;DHT22;8057;47.830;-3.870;2023-11-19T04:04:46;14.50;99.90
15916;DHT22;8057;47.830;-3.870;2023-11-19T04:08:57;14.50;99.90
15916;DHT22;8057;47.830;-3.870;2023-11-19T04:13:06;14.50;99.90
15916;DHT22;8057;47.830;-3.870;2023-11-19T04:17:16;14.60;99.90
15916;DHT22;8057;47.830;-3.870;2023-11-19T04:21:25;14.60;99.90
15916;DHT22;8057;47.830;-3.870;2023-11-19T04:25:37;14.60;99.90
15916;DHT22;8057;47.830;-3.870;2023-11-19T04:29:46;14.60;99.90
15916;DHT22;8057;47.830;-3.870;2023-11-19T04:33:56;14.50;99.90
15916;DHT22;8057;47.830;-3.870;2023-11-19T04:38:08;14.50;99.90
15916;DHT22;8057;47.830;-3.870;2023-11-19T04:42:18;14.40;99.90
15916;DHT22;8057;47.830;-3.870;2023-11-19T04:46:28;14.40;99.90
15916;DHT22;8057;47.830;-3.870;2023-11-19T04:50:37;14.30;99.90
15916;DHT22;8057;47.830;-3.870;2023-11-19T04:54:46;14.20;99.90
15916;DHT22;8057;47.830;-3.870;2023-11-19T04:58:57;14.20;99.90
15916;DHT22;8057;47.830;-3.870;2023-11-19T05:03:06;14.30;99.90
15916;DHT22;8057;47.830;-3.870;2023-11-19T05:07:16;14.30;99.90
15916;DHT22;8057;47.830;-3.870;2023-11-19T05:11:25;14.20;99.90
15916;DHT22;8057;47.830;-3.870;2023-11-19T05:15:37;14.10;99.90
15916;DHT22;8057;47.830;-3.870;2023-11-19T05:19:46;14.10;99.90
15916;DHT22;8057;47.830;-3.870;2023-11-19T05:23:56;14.10;99.90
15916;DHT22;8057;47.830;-3.870;2023-11-19T05:28:05;14.10;99.90
15916;DHT22;8057;47.830;-3.870;2023-11-19T05:32:15;14.20;99.90
15916;DHT22;8057;47.830;-3.870;2023-11-19T05:36:24;14.10;99.90
15916;DHT22;8057;47.830;-3.870;2023-11-19T05:40:36;14.10;99.90
15916;DHT22;8057;47.830;-3.870;2023-11-19T05:44:46;14.10;99.90
15916;DHT22;8057;47.830;-3.870;2023-11-19T05:48:57;14.10;99.90
15916;DHT22;8057;47.830;-3.870;2023-11-19T05:53:06;14.10;99.90
15916;DHT22;8057;47.830;-3.870;2023-11-19T05:57:17;14.10;99.90
15916;DHT22;8057;47.830;-3.870;2023-11-19T06:01:31;14.10;99.90
15916;DHT22;8057;47.830;-3.870;2023-11-19T06:05:44;14.10;99.90
15916;DHT22;8057;47.830;-3.870;2023-11-19T06:09:53;14.10;99.90
15916;DHT22;8057;47.830;-3.870;2023-11-19T06:14:02;14.00;99.90
15916;DHT22;8057;47.830;-3.870;2023-11-19T06:18:13;14.00;99.90
15916;DHT22;8057;47.830;-3.870;2023-11-19T06:22:23;14.00;99.90
15916;DHT22;8057;47.830;-3.870;2023-11-19T06:26:32;14.00;99.90
15916;DHT22;8057;47.830;-3.870;2023-11-19T06:30:42;14.00;99.90
15916;DHT22;8057;47.830;-3.870;2023-11-19T06:34:54;14.00;99.90
15916;DHT22;8057;47.830;-3.870;2023-11-19T06:39:05;14.00;99.90
15916;DHT22;8057;47.830;-3.870;2023-11-19T06:43:16;14.00;99.90
15916;DHT22;8057;47.830;-3.870;2023-11-19T06:47:26;14.00;99.90
15916;DHT22;8057;47.830;-3.870;2023-11-19T06:51:35;14.10;99.90
15916;DHT22;8057;47.830;-3.870;2023-11-19T06:55:46;14.00;99.90
15916;DHT22;8057;47.830;-3.870;2023-11-19T06:59:55;14.00;99.90
15916;DHT22;8057;47.830;-3.870;2023-11-19T07:04:05;14.00;99.90
15916;DHT22;8057;47.830;-3.870;2023-11-19T07:08:17;13.90;99.90
15916;DHT22;8057;47.830;-3.870;2023-11-19T07:12:27;13.90;99.90
15916;DHT22;8057;47.830;-3.870;2023-11-19T07:16:36;13.90;99.90
15916;DHT22;8057;47.830;-3.870;2023-11-19T07:20:46;13.80;99.90
15916;DHT22;8057;47.830;-3.870;2023-11-19T07:24:55;13.90;99.90
15916;DHT22;8057;47.830;-3.870;2023-11-19T07:29:06;13.90;99.90
15916;DHT22;8057;47.830;-3.870;2023-11-19T07:33:16;14.00;99.90
15916;DHT22;8057;47.830;-3.870;2023-11-19T07:37:25;14.00;99.90
15916;DHT22;8057;47.830;-3.870;2023-11-19T07:41:35;14.10;99.90
15916;DHT22;8057;47.830;-3.870;2023-11-19T07:45:46;14.10;99.90
15916;DHT22;8057;47.830;-3.870;2023-11-19T07:49:55;14.00;99.90
15916;DHT22;8057;47.830;-3.870;2023-11-19T07:54:04;14.00;99.90
15916;DHT22;8057;47.830;-3.870;2023-11-19T07:58:13;14.10;99.90
15916;DHT22;8057;47.830;-3.870;2023-11-19T08:02:24;14.10;99.90
15916;DHT22;8057;47.830;-3.870;2023-11-19T08:06:33;14.20;99.90
15916;DHT22;8057;47.830;-3.870;2023-11-19T08:10:43;14.30;99.90
15916;DHT22;8057;47.830;-3.870;2023-11-19T08:14:52;14.30;99.90
15916;DHT22;8057;47.830;-3.870;2023-11-19T08:19:03;14.30;99.90
15916;DHT22;8057;47.830;-3.870;2023-11-19T08:23:12;14.20;99.90
15916;DHT22;8057;47.830;-3.870;2023-11-19T08:27:21;14.20;99.90
15916;DHT22;8057;47.830;-3.870;2023-11-19T08:31:34;14.20;99.90
15916;DHT22;8057;47.830;-3.870;2023-11-19T08:35:46;14.30;99.90
15916;DHT22;8057;47.830;-3.870;2023-11-19T08:39:55;14.40;99.90
15916;DHT22;8057;47.830;-3.870;2023-11-19T08:44:05;14.50;99.90
15916;DHT22;8057;47.830;-3.870;2023-11-19T08:48:14;14.50;99.90
15916;DHT22;8057;47.830;-3.870;2023-11-19T08:52:25;14.50;99.90
15916;DHT22;8057;47.830;-3.870;2023-11-19T08:56:34;14.70;99.90
15916;DHT22;8057;47.830;-3.870;2023-11-19T09:00:43;14.70;99.90
15916;DHT22;8057;47.830;-3.870;2023-11-19T09:04:52;14.80;99.90
15916;DHT22;8057;47.830;-3.870;2023-11-19T09:09:03;14.90;99.90
15916;DHT22;8057;47.830;-3.870;2023-11-19T09:13:13;15.00;99.90
15916;DHT22;8057;47.830;-3.870;2023-11-19T09:17:22;14.90;99.90
15916;DHT22;8057;47.830;-3.870;2023-11-19T09:21:31;15.00;99.90
15916;DHT22;8057;47.830;-3.870;2023-11-19T09:25:43;15.10;99.90
15916;DHT22;8057;47.830;-3.870;2023-11-19T09:29:52;15.20;99.90
15916;DHT22;8057;47.830;-3.870;2023-11-19T09:34:05;15.20;99.90
15916;DHT22;8057;47.830;-3.870;2023-11-19T09:38:14;15.20;99.90
15916;DHT22;8057;47.830;-3.870;2023-11-19T09:42:25;15.20;99.90
15916;DHT22;8057;47.830;-3.870;2023-11-19T09:46:35;15.30;99.90
15916;DHT22;8057;47.830;-3.870;2023-11-19T09:50:47;15.40;99.90
15916;DHT22;8057;47.830;-3.870;2023-11-19T09:54:57;15.50;99.90
15916;DHT22;8057;47.830;-3.870;2023-11-19T09:59:08;15.50;99.90
15916;DHT22;8057;47.830;-3.870;2023-11-19T10:03:18;15.60;99.90
15916;DHT22;8057;47.830;-3.870;2023-11-19T10:07:28;15.60;99.90
15916;DHT22;8057;47.830;-3.870;2023-11-19T10:11:37;15.70;99.90
15916;DHT22;8057;47.830;-3.870;2023-11-19T10:15:49;15.70;99.90
15916;DHT22;8057;47.830;-3.870;2023-11-19T10:19:58;15.80;99.90
15916;DHT22;8057;47.830;-3.870;2023-11-19T10:24:08;15.80;99.90
15916;DHT22;8057;47.830;-3.870;2023-11-19T10:28:17;15.80;99.90
15916;DHT22;8057;47.830;-3.870;2023-11-19T10:32:28;15.90;99.90
15916;DHT22;8057;47.830;-3.870;2023-11-19T10:36:40;15.90;99.90
15916;DHT22;8057;47.830;-3.870;2023-11-19T10:40:50;15.90;99.90
15916;DHT22;8057;47.830;-3.870;2023-11-19T10:44:59;15.90;99.90
15916;DHT22;8057;47.830;-3.870;2023-11-19T10:49:10;16.00;99.90
15916;DHT22;8057;47.830;-3.870;2023-11-19T10:53:20;16.10;99.90
15916;DHT22;8057;47.830;-3.870;2023-11-19T10:57:30;16.10;99.90
15916;DHT22;8057;47.830;-3.870;2023-11-19T11:01:45;16.20;99.90
15916;DHT22;8057;47.830;-3.870;2023-11-19T11:05:56;16.20;99.90
15916;DHT22;8057;47.830;-3.870;2023-11-19T11:10:07;16.20;99.90
15916;DHT22;8057;47.830;-3.870;2023-11-19T11:14:19;16.10;99.90
15916;DHT22;8057;47.830;-3.870;2023-11-19T11:18:29;16.00;99.90
15916;DHT22;8057;47.830;-3.870;2023-11-19T11:22:49;15.80;99.90
15916;DHT22;8057;47.830;-3.870;2023-11-19T11:27:38;15.70;99.90
15916;DHT22;8057;47.830;-3.870;2023-11-19T11:31:58;15.70;99.90
15916;DHT22;8057;47.830;-3.870;2023-11-19T11:36:16;15.90;99.90
15916;DHT22;8057;47.830;-3.870;2023-11-19T11:40:30;16.00;99.90
15916;DHT22;8057;47.830;-3.870;2023-11-19T11:44:58;16.00;99.90
15916;DHT22;8057;47.830;-3.870;2023-11-19T11:49:11;16.00;99.90
15916;DHT22;8057;47.830;-3.870;2023-11-19T11:53:22;16.00;99.90
15916;DHT22;8057;47.830;-3.870;2023-11-19T11:57:37;16.10;99.90
15916;DHT22;8057;47.830;-3.870;2023-11-19T12:01:57;16.00;99.90
15916;DHT22;8057;47.830;-3.870;2023-11-19T12:06:08;16.10;99.90
15916;DHT22;8057;47.830;-3.870;2023-11-19T12:10:17;16.20;99.90
15916;DHT22;8057;47.830;-3.870;2023-11-19T12:19:19;16.20;99.90
15916;DHT22;8057;47.830;-3.870;2023-11-19T12:23:29;16.20;99.90
15916;DHT22;8057;47.830;-3.870;2023-11-19T12:27:40;16.40;99.90
15916;DHT22;8057;47.830;-3.870;2023-11-19T12:31:54;16.30;99.90
15916;DHT22;8057;47.830;-3.870;2023-11-19T12:36:22;16.40;99.90
15916;DHT22;8057;47.830;-3.870;2023-11-19T12:40:32;16.60;99.90
15916;DHT22;8057;47.830;-3.870;2023-11-19T12:44:54;16.70;99.90
15916;DHT22;8057;47.830;-3.870;2023-11-19T12:49:04;16.70;99.90
15916;DHT22;8057;47.830;-3.870;2023-11-19T12:53:15;16.60;99.90
15916;DHT22;8057;47.830;-3.870;2023-11-19T12:57:36;16.40;99.90
15916;DHT22;8057;47.830;-3.870;2023-11-19T13:01:54;16.40;99.90
15916;DHT22;8057;47.830;-3.870;2023-11-19T13:06:05;16.50;99.90
15916;DHT22;8057;47.830;-3.870;2023-11-19T13:10:17;16.40;99.90
15916;DHT22;8057;47.830;-3.870;2023-11-19T13:14:36;16.20;99.90
15916;DHT22;8057;47.830;-3.870;2023-11-19T13:18:46;16.40;99.90
15916;DHT22;8057;47.830;-3.870;2023-11-19T13:22:58;16.40;99.90
15916;DHT22;8057;47.830;-3.870;2023-11-19T13:27:09;16.40;99.90
15916;DHT22;8057;47.830;-3.870;2023-11-19T13:31:18;16.30;99.90
15916;DHT22;8057;47.830;-3.870;2023-11-19T13:35:27;16.30;99.90
15916;DHT22;8057;47.830;-3.870;2023-11-19T13:39:41;16.30;99.90
15916;DHT22;8057;47.830;-3.870;2023-11-19T13:43:52;16.30;99.90
15916;DHT22;8057;47.830;-3.870;2023-11-19T13:48:02;16.40;99.90
15916;DHT22;8057;47.830;-3.870;2023-11-19T13:52:12;16.40;99.90
15916;DHT22;8057;47.830;-3.870;2023-11-19T13:56:21;16.50;99.90
15916;DHT22;8057;47.830;-3.870;2023-11-19T14:00:31;16.40;99.90
15916;DHT22;8057;47.830;-3.870;2023-11-19T14:04:41;16.30;99.90
15916;DHT22;8057;47.830;-3.870;2023-11-19T14:08:50;16.20;99.90
15916;DHT22;8057;47.830;-3.870;2023-11-19T14:12:59;16.30;99.90
15916;DHT22;8057;47.830;-3.870;2023-11-19T14:17:10;16.20;99.90
15916;DHT22;8057;47.830;-3.870;2023-11-19T14:21:21;16.20;99.90
15916;DHT22;8057;47.830;-3.870;2023-11-19T14:25:32;16.20;99.90
15916;DHT22;8057;47.830;-3.870;2023-11-19T14:29:41;16.10;99.90
15916;DHT22;8057;47.830;-3.870;2023-11-19T14:33:52;16.00;99.90
15916;DHT22;8057;47.830;-3.870;2023-11-19T14:38:03;15.90;99.90
15916;DHT22;8057;47.830;-3.870;2023-11-19T14:42:14;15.60;99.90
15916;DHT22;8057;47.830;-3.870;2023-11-19T14:46:23;15.50;99.90
15916;DHT22;8057;47.830;-3.870;2023-11-19T14:50:34;15.40;99.90
15916;DHT22;8057;47.830;-3.870;2023-11-19T14:54:43;15.30;99.90
15916;DHT22;8057;47.830;-3.870;2023-11-19T14:58:53;15.40;99.90
15916;DHT22;8057;47.830;-3.870;2023-11-19T15:03:02;15.30;99.90
15916;DHT22;8057;47.830;-3.870;2023-11-19T16:19:09;14.30;99.90
15916;DHT22;8057;47.830;-3.870;2023-11-19T18:36:36;13.80;99.90
15916;DHT22;8057;47.830;-3.870;2023-11-19T18:41:03;13.70;99.90
15916;DHT22;8057;47.830;-3.870;2023-11-19T18:59:25;13.60;99.90
